Date,TemperatureHighF,TemperatureAvgF,TemperatureLowF,DewpointHighF,DewpointAvgF,DewpointLowF,HumidityHigh,HumidityAvg,HumidityLow,PressureMaxIn,PressureMinIn,WindSpeedMaxMPH,WindSpeedAvgMPH,GustSpeedMaxMPH,PrecipitationSumIn
2013-1-2,38,34,26,29,27,22,83,76,68,30.21,30.03,7,1,13,0.00
2013-1-3,32,25,16,26,18,10,81,75,62,30.40,30.20,9,1,9,0.00
2013-1-4,36,23,14,20,14,8,82,69,47,30.27,30.09,5,0,6,0.00
2013-1-5,36,29,15,27,20,8,79,68,53,30.19,29.98,10,3,10,0.00
2013-1-6,45,25,13,25,17,8,83,72,44,30.28,30.08,4,0,8,0.00
2013-1-7,40,30,16,28,22,10,81,73,63,30.07,29.94,8,1,10,0.00
2013-1-8,36,25,13,28,20,8,89,79,69,30.12,29.82,6,0,8,0.00
2013-1-9,50,32,18,33,24,14,87,76,51,30.40,30.12,3,0,3,0.00
2013-1-10,36,31,21,33,28,17,93,88,74,30.28,29.66,10,0,12,0.04
2013-1-11,44,35,23,42,33,16,94,92,72,29.74,29.38,18,2,18,0.00
2013-1-12,25,20,15,16,10,6,76,66,51,30.10,29.74,15,5,15,0.00
2013-1-14,34,23,14,15,11,8,75,60,43,30.39,30.30,2,0,8,0.00
2013-1-15,36,20,10,22,12,4,80,70,53,30.30,30.11,8,1,10,0.00
2013-1-22,23,15,10,12,7,1,80,72,60,30.33,30.19,10,0,10,0.00
2013-1-23,34,18,10,19,10,4,86,72,53,30.46,30.11,11,2,12,0.00
2013-1-24,11,5,2,3,-3,-6,72,68,59,30.51,30.34,9,1,12,0.00
2013-1-25,55,38,18,30,23,11,79,57,35,30.21,30.10,9,1,10,0.00
2013-1-26,52,30,17,31,20,12,85,69,40,30.21,29.98,11,2,15,0.00
2013-1-27,40,38,37,38,36,34,93,92,92,29.80,29.68,10,0,10,0.00
2013-1-28,39,36,34,37,34,32,94,93,92,29.84,29.57,5,0,7,0.00
2013-1-29,37,33,29,35,29,26,94,88,82,29.72,29.60,12,4,14,0.00
2013-1-30,29,22,14,26,15,9,89,76,64,29.92,29.67,15,6,16,0.00
2013-1-31,15,10,2,9,0,-6,77,66,53,30.38,29.92,17,4,17,0.00
2013-2-1,29,16,1,22,9,-6,81,73,69,30.37,30.01,10,2,13,0.00
2013-2-2,42,32,25,34,26,21,84,78,69,30.17,30.02,13,1,13,0.04
2013-2-3,45,35,20,33,26,15,86,69,45,30.19,29.77,11,2,13,0.00
2013-2-4,39,28,23,30,22,19,86,79,69,30.02,29.76,14,2,14,0.00
2013-2-5,56,39,26,34,27,20,88,65,39,30.05,29.79,10,2,10,0.00
2013-2-6,54,39,26,44,32,20,84,76,61,30.05,29.82,12,2,13,0.00
2013-2-7,41,33,28,37,27,23,85,81,75,30.23,29.88,8,2,12,0.00
2013-2-8,33,28,25,27,24,21,88,83,78,30.29,30.09,10,2,11,0.00
2013-2-9,50,38,27,39,32,24,90,80,64,30.10,29.61,12,5,14,0.00
2013-2-10,42,35,30,40,31,23,93,84,75,29.82,29.26,16,7,19,0.02
2013-2-11,41,31,20,26,22,14,81,70,54,30.13,29.82,14,5,18,0.00
2013-2-12,51,32,17,28,20,13,87,63,28,30.13,29.89,10,1,13,0.00
2013-2-13,56,38,20,33,25,15,87,62,37,29.90,29.72,10,2,12,0.00
2013-2-14,46,36,20,31,25,13,87,68,43,30.27,29.80,14,5,15,0.00
2013-2-15,35,24,14,24,16,8,83,73,50,30.33,30.24,10,1,16,0.02
2013-2-16,36,25,12,26,18,8,84,76,65,30.30,29.98,9,1,12,0.00
2013-2-17,56,35,19,39,27,15,87,73,49,29.98,29.55,11,3,12,0.00
2013-2-18,38,32,23,31,24,16,85,72,54,30.06,29.56,16,4,16,0.00
2013-2-19,32,19,10,15,5,1,73,56,33,30.35,30.07,10,4,11,0.00
2013-2-20,23,14,5,15,5,-2,81,68,53,30.35,30.16,10,1,10,0.00
2013-2-21,24,21,20,18,14,10,86,74,62,30.20,29.85,12,1,12,0.00
2013-2-22,34,21,9,19,13,2,84,71,50,30.01,29.85,10,2,13,0.08
2013-2-23,39,20,0,25,12,-6,82,71,54,29.98,29.79,9,0,10,0.00
2013-2-24,40,29,18,29,23,13,86,78,62,30.07,29.85,7,0,8,0.00
2013-2-25,42,30,25,30,24,21,87,78,60,30.08,29.90,11,1,11,0.00
2013-2-26,30,26,22,25,22,19,89,86,78,29.93,29.81,9,2,12,0.00
2013-2-27,43,32,23,28,24,19,86,74,51,30.11,29.91,12,6,13,0.00
2013-2-28,32,28,24,25,22,18,83,78,72,30.23,30.10,10,4,13,0.00
2013-3-1,32,25,15,21,17,10,80,72,59,30.33,30.20,10,2,12,0.00
2013-3-2,39,25,10,25,17,6,85,72,52,30.32,30.05,7,0,10,0.00
2013-3-3,42,33,25,33,27,21,87,79,70,30.05,29.68,8,2,11,0.00
2013-3-4,40,33,26,32,27,19,86,78,63,30.03,29.64,10,2,13,0.00
2013-3-5,35,27,20,22,18,14,79,69,55,30.37,30.03,17,7,20,0.00
2013-3-6,39,28,19,24,19,14,81,71,51,30.39,30.19,8,1,9,0.00
2013-3-7,52,35,23,32,25,18,85,70,45,30.22,30.04,14,3,15,0.00
2013-3-8,55,39,25,40,31,21,90,74,55,30.14,29.86,13,2,16,0.04
2013-3-9,57,44,32,52,40,30,92,88,73,29.86,29.54,18,4,19,0.39
2013-3-10,32,26,21,30,22,17,91,87,83,29.97,29.72,12,3,17,0.04
2013-3-11,40,26,18,23,18,13,83,71,49,30.00,29.86,9,1,9,0.08
2013-3-12,37,28,18,25,20,13,86,73,61,30.31,30.00,11,3,12,0.00
2013-3-13,35,24,11,26,18,7,85,76,66,30.40,30.18,8,1,10,0.00
2013-3-14,67,43,27,46,33,21,83,69,46,30.19,30.03,6,0,7,0.00
2013-3-15,63,48,32,48,39,28,88,72,53,30.05,29.72,9,1,11,0.00
2013-3-16,41,31,25,37,25,20,87,77,64,30.16,29.85,14,4,16,0.00
2013-3-17,44,33,24,33,26,19,87,74,57,30.13,29.72,12,3,12,0.00
2013-3-18,41,34,26,33,22,15,91,63,40,30.04,29.69,15,6,17,0.02
2013-3-19,56,33,19,31,20,13,79,61,31,30.33,30.03,12,2,12,0.00
2013-3-20,43,28,16,16,12,7,76,55,30,30.38,30.07,9,2,11,0.00
2013-3-21,31,25,20,22,16,12,83,69,53,30.08,29.89,7,1,9,0.00
2013-3-22,32,29,26,24,22,19,86,75,65,30.01,29.94,4,0,4,0.02
2013-3-23,37,31,29,29,26,22,87,79,69,30.10,30.00,12,1,12,0.00
2013-3-24,32,26,23,24,20,15,87,76,59,30.09,30.04,11,6,13,0.00
2013-3-25,32,27,24,22,20,18,86,77,63,30.32,30.08,10,5,12,0.00
2013-3-26,44,29,12,26,18,7,84,65,44,30.34,30.19,5,0,9,0.00
2013-3-27,51,36,23,33,25,18,86,67,46,30.22,30.13,11,2,12,0.00
2013-3-28,58,40,23,36,28,18,87,65,40,30.23,30.12,6,0,8,0.00
2013-3-29,68,48,27,41,32,23,87,59,31,30.19,30.01,10,2,11,0.00
2013-3-30,71,56,46,54,44,37,92,70,38,30.05,29.91,9,1,9,0.33
2013-3-31,48,44,38,42,38,34,87,80,68,30.01,29.94,7,1,7,0.00
2013-4-8,62,62,62,58,58,58,88,88,87,29.67,29.66,8,6,10,0.00
2013-4-9,62,49,32,58,46,29,90,89,85,29.98,29.58,16,4,16,1.00
2013-4-10,33,32,31,31,30,28,91,91,89,29.99,29.86,10,0,10,0.02
2013-4-11,36,32,29,32,28,25,90,85,81,29.82,29.66,12,4,14,0.02
2013-4-12,43,35,31,32,28,26,86,76,60,30.01,29.74,11,5,12,0.00
2013-4-13,55,41,24,41,32,20,87,72,57,30.02,29.64,12,3,12,0.00
2013-4-14,65,51,41,53,42,31,90,72,49,29.68,29.31,13,3,14,0.21
2013-4-15,48,39,31,33,28,22,79,65,51,30.08,29.68,11,3,13,0.00
2013-4-16,55,43,34,34,30,27,77,61,43,30.22,30.06,8,1,13,0.00
2013-4-17,45,39,35,38,35,32,91,84,67,30.15,29.77,14,4,14,0.44
2013-4-18,37,33,30,32,28,26,91,84,76,29.93,29.73,15,9,15,0.17
2013-4-19,51,37,27,31,25,20,81,63,42,30.09,29.88,11,5,14,0.00
2013-4-20,46,34,23,30,24,18,86,67,43,30.23,30.08,10,1,12,0.00
2013-4-21,68,53,38,50,38,30,75,59,40,30.11,29.96,14,3,14,0.02
2013-4-22,49,38,31,47,35,27,92,88,83,30.23,29.96,15,6,16,0.00
2013-4-23,41,33,26,27,24,20,83,69,52,30.25,30.15,11,5,13,0.00
2013-4-24,60,40,24,39,27,19,82,63,31,30.19,30.03,13,2,13,0.00
2013-4-25,69,50,28,39,33,23,84,56,30,30.22,29.98,14,3,16,0.00
2013-4-26,77,59,46,51,44,37,81,58,36,30.16,29.98,10,2,13,0.00
2013-4-27,73,54,40,53,45,36,93,74,42,30.19,29.93,9,1,10,0.00
2013-4-28,82,63,43,54,48,40,92,63,33,29.93,29.67,12,2,12,0.00
2013-4-29,83,67,52,56,49,44,77,56,31,29.80,29.50,11,1,11,0.00
2013-4-30,78,69,55,58,49,40,72,50,37,29.93,29.48,10,4,15,0.00
2013-5-1,55,39,32,43,34,30,91,85,59,30.42,29.93,16,5,17,0.17
2013-5-2,53,41,33,36,31,27,89,68,47,30.53,30.38,14,5,16,0.16
2013-5-3,55,42,30,34,29,25,82,61,39,30.38,30.05,13,3,14,0.00
2013-5-4,42,40,37,38,35,30,88,83,64,30.14,30.00,13,5,15,0.00
2013-5-5,56,47,40,48,41,37,87,81,71,30.17,30.10,9,1,9,0.00
2013-5-6,76,56,40,50,44,36,91,67,35,30.16,30.02,7,0,8,0.00
2013-5-7,72,58,41,59,49,36,90,74,50,30.06,29.95,11,1,11,0.18
2013-5-8,66,59,54,59,55,50,91,85,74,29.98,29.90,6,0,8,0.07
2013-5-9,67,58,53,58,54,51,93,87,71,30.02,29.87,10,1,11,0.00
2013-5-10,75,59,48,56,49,43,90,71,44,30.11,30.00,8,1,10,0.00
2013-5-11,66,54,40,46,34,26,83,50,24,30.27,30.04,12,4,16,0.00
2013-5-12,71,51,33,36,31,24,81,50,24,30.26,30.08,7,0,10,0.00
2013-5-13,85,65,44,56,46,33,81,53,27,30.09,29.83,13,3,13,0.00
2013-5-14,101,72,56,59,55,50,84,59,19,29.84,29.69,14,1,14,0.00
2013-5-15,70,63,59,51,46,41,66,54,44,29.92,29.79,5,0,9,0.00
2013-5-16,85,73,57,64,57,48,75,58,44,29.87,29.76,12,2,12,0.00
2013-5-17,88,74,59,62,59,54,86,62,40,29.88,29.80,10,2,12,0.00
2013-5-18,82,72,58,68,62,53,89,72,58,29.89,29.68,12,2,15,0.22
2013-5-19,75,65,58,67,60,54,92,84,69,29.76,29.50,15,1,15,0.43
2013-5-20,75,64,55,59,54,51,92,72,49,29.66,29.52,13,3,13,0.00
2013-5-21,63,58,52,55,49,45,84,73,58,29.75,29.62,11,5,12,0.00
2013-5-22,62,55,50,50,48,46,86,78,64,30.00,29.75,9,3,12,0.00
2013-5-24,73,67,54,54,51,47,79,57,49,30.26,29.99,12,6,14,0.00
2013-5-25,79,68,57,69,61,51,93,77,62,30.08,29.93,8,1,11,0.38
2013-5-26,81,70,64,70,64,61,92,85,69,29.97,29.82,9,1,10,0.00
2013-5-27,80,69,59,67,62,56,93,80,60,29.93,29.57,21,2,25,1.55
2013-5-28,84,70,60,65,61,57,91,74,52,29.75,29.65,4,0,7,0.00
2013-5-29,76,68,62,70,64,60,92,86,76,29.71,29.51,12,3,15,1.02
2013-5-30,78,67,60,64,58,52,93,76,48,29.63,29.50,9,2,11,0.04
2013-5-31,80,68,58,54,50,46,76,54,32,29.73,29.61,13,4,13,0.00
2013-6-1,66,59,53,53,49,46,84,72,60,30.05,29.69,13,5,13,0.00
2013-6-2,78,61,46,50,45,41,85,59,33,30.13,29.99,9,0,9,0.00
2013-6-3,75,62,45,54,48,40,89,64,41,30.02,29.79,13,3,15,0.00
2013-6-4,74,66,58,64,59,53,91,79,69,30.01,29.83,7,0,10,0.33
2013-6-5,80,66,56,58,52,48,88,64,40,30.06,29.98,8,1,10,0.00
2013-6-6,78,64,54,55,51,47,86,64,43,30.02,29.97,8,0,8,0.00
2013-6-7,83,64,48,55,50,44,88,63,35,30.04,29.88,5,0,8,0.00
2013-6-8,68,61,56,64,56,49,92,83,68,29.88,29.65,9,0,10,0.59
2013-6-9,71,64,60,60,57,54,85,78,66,29.86,29.71,11,3,12,0.00
2013-6-10,82,68,52,66,58,49,92,73,48,29.90,29.77,9,1,9,0.00
2013-6-11,89,76,65,73,66,62,90,72,45,29.82,29.67,11,0,12,0.00
2013-6-12,90,78,67,72,66,56,90,68,43,29.95,29.64,12,2,12,0.00
2013-6-13,81,67,57,61,56,52,84,68,39,30.12,29.98,3,0,6,0.00
2013-6-14,90,73,60,75,64,55,88,76,58,30.03,29.73,11,2,12,0.00
2013-6-15,85,74,64,69,64,61,91,74,49,29.96,29.81,9,1,12,0.00
2013-6-16,93,76,63,68,62,59,92,65,35,30.01,29.93,10,0,14,0.00
2013-6-17,96,77,62,64,59,55,82,57,34,30.04,29.96,14,1,14,0.00
2013-6-18,88,73,62,64,58,56,84,62,39,30.08,29.97,12,0,12,0.00
2013-6-19,86,74,60,69,62,55,90,67,47,30.00,29.88,12,2,13,0.00
2013-6-20,89,79,66,73,68,60,86,70,57,29.94,29.79,13,4,18,0.00
2013-6-21,95,84,76,73,70,66,79,65,38,29.85,29.75,14,5,16,0.00
2013-6-22,88,79,67,73,67,59,90,69,48,30.01,29.76,11,3,12,0.22
2013-6-23,85,74,64,70,66,61,90,75,59,29.93,29.72,12,1,14,0.31
2013-6-24,83,75,68,74,70,62,93,83,69,29.90,29.70,11,1,13,0.12
2013-6-25,86,78,69,77,70,65,92,78,60,29.81,29.67,12,1,14,0.00
2013-6-26,99,83,72,72,68,61,92,65,32,29.90,29.70,27,1,27,0.00
2013-6-27,86,74,66,71,66,62,90,76,53,30.04,29.89,10,0,14,0.06
2013-6-28,91,78,67,66,61,56,88,61,34,30.02,29.93,8,1,10,0.00
2013-6-29,85,73,63,61,58,55,75,59,41,29.97,29.92,13,2,13,0.00
2013-6-30,84,70,59,60,56,52,84,63,38,30.12,29.97,5,0,9,0.00
2013-7-1,88,71,53,58,54,48,85,59,32,30.21,30.12,4,0,7,0.00
2013-7-2,88,70,56,66,58,52,86,70,37,30.17,30.06,11,0,11,1.20
2013-7-3,86,72,58,64,59,54,90,69,38,30.08,29.95,10,0,13,0.00
2013-7-4,85,71,57,63,58,52,87,65,40,29.98,29.88,13,2,13,0.00
2013-7-5,67,65,64,59,58,57,80,78,75,29.91,29.90,0,0,0,0.00
2013-7-6,87,82,75,70,67,63,68,61,52,29.86,29.78,12,4,14,0.00
2013-7-7,96,82,70,76,68,62,78,65,47,29.93,29.82,26,2,26,0.00
2013-7-8,88,80,73,76,72,69,90,78,59,29.97,29.89,10,0,11,0.00
2013-7-9,102,84,71,76,72,67,88,68,40,29.98,29.86,29,1,29,0.00
2013-7-10,91,78,68,69,66,63,85,69,45,30.11,29.98,6,0,13,0.00
2013-7-11,87,74,61,66,62,57,89,67,46,30.11,29.95,10,1,12,0.00
2013-7-12,92,78,66,75,67,59,80,68,55,29.99,29.88,11,2,12,0.00
2013-7-13,93,81,71,76,70,65,83,70,52,29.95,29.89,11,3,12,0.00
2013-7-14,87,76,69,69,65,61,88,70,44,30.15,29.95,11,1,13,0.02
2013-7-15,87,69,60,69,62,56,88,78,50,30.20,30.14,4,0,7,0.00
2013-7-16,89,83,73,69,66,63,80,58,47,30.25,30.20,10,1,12,0.00
2013-7-17,91,79,66,72,67,62,89,69,48,30.30,30.16,13,1,13,0.00
2013-7-18,92,80,68,73,68,64,89,68,47,30.17,29.93,14,1,14,0.00
2013-7-19,98,84,74,74,67,64,71,58,36,29.96,29.90,24,1,27,0.00
2013-7-20,91,75,62,70,64,57,85,69,44,30.03,29.86,4,0,9,2.63
2013-7-21,92,77,67,75,68,62,92,75,53,29.93,29.78,12,0,12,0.00
2013-7-22,97,79,66,79,69,62,91,73,49,29.87,29.77,16,0,16,0.05
2013-7-23,73,69,65,64,62,61,93,80,71,30.03,29.86,4,0,4,0.00
2013-8-25,94,83,74,72,70,68,84,68,45,30.10,30.01,15,5,19,0.00
2013-8-26,94,83,76,73,70,68,78,66,48,30.06,29.95,16,4,18,0.00
2013-8-27,95,83,75,71,67,64,77,60,40,29.93,29.87,7,3,17,0.00
2013-8-28,94,81,70,73,67,63,89,63,37,29.99,29.91,12,2,12,0.00
2013-8-29,96,79,63,76,69,61,98,75,39,30.00,29.89,17,3,17,0.00
2013-8-30,93,78,66,79,71,64,96,81,58,29.91,29.84,12,2,12,0.00
2013-8-31,93,80,70,75,71,66,96,78,43,29.94,29.77,24,2,24,0.00
2013-9-1,83,74,62,71,62,57,94,70,42,30.04,29.77,15,4,22,0.00
2013-9-2,80,66,56,61,57,53,97,75,43,30.15,30.04,13,2,13,0.00
2013-9-3,86,68,50,65,58,49,96,74,44,30.14,30.04,15,3,15,0.00
2013-9-4,86,72,62,66,62,57,92,74,39,30.16,30.06,15,3,15,0.00
2013-9-5,88,74,64,66,64,60,96,74,42,30.20,30.08,16,4,16,0.01
2013-9-6,94,77,61,69,65,59,95,70,41,30.11,29.89,21,5,21,0.00
2013-9-7,85,76,69,73,68,64,95,78,54,29.93,29.86,12,3,12,0.06
2013-9-8,91,78,67,75,71,66,99,81,54,29.94,29.78,12,2,12,0.00
2013-9-9,93,79,70,69,63,61,94,60,36,29.81,29.78,15,5,15,0.00
2013-9-10,92,79,64,70,64,58,89,62,38,30.06,29.83,13,4,13,0.00
2013-9-11,84,73,66,71,68,64,99,85,52,30.15,30.03,6,1,10,0.14
2013-9-12,80,70,56,67,56,49,93,64,35,30.26,30.14,12,3,12,0.00
2013-9-13,75,61,47,55,51,46,96,73,40,30.28,30.11,14,2,14,0.00
2013-9-14,76,63,48,58,53,46,97,72,46,30.12,29.90,20,5,20,0.00
2013-9-15,68,64,58,66,59,54,95,83,69,30.29,29.88,20,5,20,0.29
2013-9-16,66,61,55,56,54,52,96,80,66,30.36,30.23,12,4,14,0.03
2013-9-17,72,64,57,68,62,56,99,94,83,30.23,29.89,16,6,18,0.34
2013-9-18,89,76,66,71,68,65,98,77,53,29.90,29.67,22,8,22,0.00
2013-9-19,79,69,57,66,60,49,94,73,49,30.05,29.70,20,6,24,0.16
2013-9-20,70,58,47,52,47,43,94,71,38,30.15,30.03,16,5,18,0.00
2013-9-21,78,59,41,55,48,40,98,73,40,30.09,29.89,17,4,17,0.00
2013-9-22,80,67,54,55,52,48,93,63,34,29.92,29.79,25,8,25,0.00
2013-9-23,78,64,51,54,51,48,91,65,36,29.85,29.72,26,9,26,0.00
2013-9-24,70,63,53,58,55,52,95,78,61,29.96,29.71,13,3,13,0.00
2013-9-25,74,57,48,61,54,47,99,88,59,29.96,29.76,21,4,21,0.00
2013-9-26,88,74,60,60,59,57,92,63,35,29.80,29.70,29,12,29,0.00
2013-9-27,88,76,66,62,60,58,86,61,40,29.80,29.70,29,12,29,0.02
2013-9-28,75,62,52,62,55,49,95,80,57,29.91,29.67,20,10,20,0.23
2013-9-29,75,64,55,46,44,42,69,50,31,29.94,29.91,22,6,22,0.23
2013-9-30,82,65,52,53,49,46,81,58,31,29.92,29.71,24,7,24,0.00
2013-10-1,79,66,51,54,47,37,94,56,23,29.99,29.78,14,4,14,0.00
2013-10-2,84,67,50,64,57,47,92,71,42,30.00,29.83,23,6,23,1.50
2013-10-3,77,66,59,64,61,58,98,85,63,29.93,29.73,16,3,16,0.76
2013-10-4,83,66,47,72,59,37,96,77,52,29.92,29.61,34,11,34,0.47
2013-10-5,50,44,40,38,35,32,90,70,53,29.98,29.89,27,12,27,0.01
2013-10-6,59,48,41,47,41,35,94,78,44,30.11,29.88,25,10,25,0.03
2013-10-7,74,56,41,46,40,36,86,61,29,30.16,30.03,15,4,15,0.36
2013-10-8,77,63,48,47,44,40,82,51,33,30.03,29.89,28,11,28,0.00
2013-10-9,78,67,53,53,50,46,83,56,37,30.00,29.93,24,10,24,0.00
2013-10-10,80,66,54,58,54,50,89,68,45,30.00,29.77,24,10,24,0.00
2013-10-11,76,64,50,60,51,42,86,66,32,29.94,29.62,29,11,29,0.00
2013-10-12,65,52,39,43,36,28,92,62,25,30.36,29.93,18,5,18,0.00
2013-10-13,68,50,34,41,36,32,95,64,28,30.49,30.34,20,4,20,0.00
2013-10-14,59,52,45,58,47,36,98,84,52,30.35,29.74,27,8,27,2.80
2013-10-15,53,46,43,48,40,36,92,79,72,30.17,29.85,33,14,33,33.60
2013-10-16,55,45,40,40,38,30,88,78,39,30.18,30.03,15,7,15,0.00
2013-10-17,56,44,33,42,37,32,95,77,58,30.16,29.97,27,7,27,0.00
2013-10-18,51,41,32,36,31,28,91,72,41,30.24,30.10,12,4,12,0.00
2013-10-19,62,45,34,40,34,30,94,69,38,30.11,29.88,23,6,23,0.00
2013-10-20,64,50,39,42,39,34,94,66,37,30.11,29.79,26,6,26,0.00
2013-10-21,55,41,30,39,34,29,97,78,42,30.19,30.02,13,3,13,0.00
2013-10-22,49,44,32,44,38,30,93,80,66,30.22,29.96,14,6,14,0.00
2013-10-23,52,39,28,41,34,26,97,86,63,30.33,30.14,13,3,13,0.00
2013-10-24,49,39,30,34,28,23,89,68,38,30.52,30.33,13,4,13,0.00
2013-10-25,59,43,24,35,29,22,93,62,37,30.51,30.14,22,6,22,0.00
2013-10-26,50,43,27,37,31,24,90,64,40,30.32,30.10,16,5,16,0.00
2013-10-27,72,47,25,40,32,22,94,63,29,30.24,29.89,16,4,16,0.00
2013-10-28,51,45,38,41,36,33,88,72,57,30.29,30.02,20,7,20,0.07
2013-10-29,49,45,42,49,44,40,99,96,88,30.28,30.03,10,3,10,0.16
2013-10-30,52,44,39,50,43,38,99,96,92,30.11,29.85,23,4,23,0.02
2013-10-31,57,43,32,45,37,31,100,84,48,29.86,29.59,20,4,20,0.24
2013-11-1,59,47,40,42,38,35,85,73,43,30.10,29.69,26,10,26,0.03
2013-11-2,59,43,33,37,33,30,90,71,35,30.28,30.10,15,5,15,0.36
2013-11-3,58,48,32,39,35,29,89,63,42,30.15,29.79,36,13,36,0.00
2013-11-4,56,46,30,42,36,28,92,72,47,30.23,29.82,17,4,17,0.00
2013-11-5,42,37,30,39,34,27,96,91,78,30.23,29.96,21,7,21,0.87
2013-11-6,42,34,28,34,31,27,97,88,70,30.38,30.19,16,5,16,0.01
2013-11-7,49,36,25,31,27,18,94,73,30,30.53,30.37,17,4,17,0.12
2013-11-8,60,45,25,40,34,23,93,67,40,30.37,29.82,32,7,32,0.00
2013-11-9,60,47,33,37,34,30,92,63,39,30.45,30.01,20,5,20,0.00
2013-11-10,53,42,27,41,31,25,94,69,40,30.49,30.22,16,5,16,0.00
2013-11-11,48,32,17,44,24,11,92,75,54,30.91,30.18,20,9,20,0.00
2013-11-12,35,21,10,13,10,6,88,65,30,31.04,30.69,14,4,14,0.00
2013-11-13,56,40,24,33,24,12,68,55,41,30.69,30.06,22,10,22,0.00
2013-11-14,59,43,30,40,32,27,91,68,50,30.06,29.97,12,3,12,0.00
2013-11-15,56,37,25,38,32,24,95,82,48,29.99,29.66,20,4,20,0.00
2013-11-16,63,47,33,50,38,30,98,75,35,29.66,29.38,22,6,22,0.00
2013-11-17,55,45,33,46,37,29,91,73,52,30.16,29.42,18,6,18,0.01
2013-11-18,58,40,29,34,26,21,89,63,24,30.33,30.15,12,3,12,0.12
2013-11-19,61,46,29,35,28,24,82,52,30,30.25,29.92,33,12,33,0.00
2013-11-20,60,48,34,38,33,25,91,60,39,30.03,29.79,20,8,20,0.00
2013-11-21,37,26,19,34,20,15,93,79,69,30.74,30.03,21,12,21,0.00
2013-11-22,32,22,13,15,10,6,83,63,36,30.87,30.74,15,5,15,0.00
2013-11-23,25,17,9,16,8,0,86,68,38,31.05,30.79,12,5,12,0.00
2013-11-24,36,22,8,15,10,4,82,62,41,30.91,30.33,22,11,22,0.00
2013-11-25,46,32,22,30,22,11,81,67,48,30.34,30.24,20,6,20,0.00
2013-11-26,31,25,16,25,15,8,85,67,43,30.58,30.33,20,7,20,0.00
2013-11-27,34,23,7,21,13,4,89,66,46,30.58,30.17,27,7,27,0.00
2013-11-28,34,26,14,24,18,10,88,72,54,30.61,30.21,20,6,20,0.00
2013-11-29,47,26,12,29,19,9,91,76,48,30.61,30.25,20,4,20,0.00
2013-11-30,59,37,23,33,26,20,93,68,32,30.27,30.16,9,2,9,0.00
2013-12-1,48,33,20,35,25,18,92,73,49,30.27,29.95,8,2,8,0.00
2013-12-2,64,40,26,36,29,21,95,68,33,29.95,29.60,15,3,15,0.00
2013-12-3,42,35,30,34,31,26,91,85,72,29.82,29.58,18,6,18,0.00
2013-12-4,32,20,15,29,16,7,94,84,71,30.26,29.78,24,12,24,0.00
2013-12-5,16,10,6,7,0,-4,75,63,48,30.64,30.23,23,10,23,0.00
2013-12-6,11,4,-2,-3,-5,-7,79,66,50,30.91,30.62,14,6,14,0.00
2013-12-7,10,4,-4,6,-3,-8,87,72,55,30.95,30.58,12,3,12,0.00
2013-12-8,20,12,4,18,9,1,94,87,78,30.58,30.19,12,4,12,0.01
2013-12-9,15,7,-1,8,-1,-7,88,72,60,30.53,30.25,23,8,23,0.12
2013-12-10,30,24,16,26,15,7,92,71,61,30.42,30.24,20,8,20,0.00
2013-12-11,27,9,1,22,2,-5,85,73,60,30.83,30.42,20,7,20,0.00
2013-12-12,35,23,11,23,16,4,88,74,57,30.62,30.20,16,4,16,0.00
2013-12-13,32,21,9,25,17,7,92,85,72,30.27,30.03,15,4,15,0.00
2013-12-14,24,17,10,18,13,7,90,83,70,30.38,30.26,15,6,15,0.00
2013-12-15,27,19,13,22,16,11,93,88,80,30.32,30.11,12,2,12,0.00
2013-12-16,49,32,12,35,26,10,92,78,52,30.31,30.12,16,4,16,0.00
2013-12-17,38,30,26,28,25,20,92,82,57,30.41,30.19,16,6,16,0.00
2013-12-18,60,39,24,32,26,19,87,64,34,30.19,29.79,16,5,16,0.00
2013-12-19,36,26,14,29,21,11,91,82,71,30.07,29.84,18,9,18,0.00
2013-12-20,18,14,10,14,11,8,90,86,82,30.17,30.05,20,6,20,0.00
2013-12-21,24,19,13,18,15,11,91,86,75,30.06,29.94,18,4,18,0.00
2013-12-22,21,15,8,18,9,3,90,77,60,30.58,30.04,15,8,15,0.00
2013-12-23,13,6,0,3,-4,-7,78,66,44,30.80,30.58,16,6,16,0.00
2013-12-24,26,15,4,24,11,-6,94,83,59,30.71,30.27,31,10,31,0.00
2013-12-25,42,26,14,29,20,11,97,77,53,30.44,30.36,24,6,24,0.00
2013-12-26,51,32,17,24,20,14,90,63,32,30.39,30.22,13,5,13,0.00
2013-12-27,62,38,16,29,22,12,94,57,23,30.39,30.16,25,5,25,0.00
2013-12-28,61,39,14,31,23,6,79,57,22,30.28,29.81,28,9,28,0.00
2013-12-29,14,7,0,6,-7,-13,77,54,30,30.56,30.28,27,9,27,0.00
2013-12-30,40,19,0,28,8,-7,82,60,45,30.46,30.21,24,8,24,0.00
2013-12-31,33,15,5,20,9,2,89,76,56,30.43,30.16,14,5,14,0.00
2014-1-1,12,8,2,6,3,-2,85,80,76,30.61,30.29,17,7,17,0.00
2014-1-2,13,2,-6,8,-2,-9,90,80,66,30.68,30.56,12,3,12,0.00